Cullen, Virginia
Current Conditions -  °F | °C
As of 9:15 PM on Saturday 20 Dec 2014 (Local Time) from KFVX Reporting Station
Overcast Overcast  
Wind Chill: 37°   Ceiling: 8000
Heat Index: 37°   Visibility: 10mi
Dew Point: 26°   Wind: 0mph
Humidity: 66%   Direction: NA
Pressure: 30.27"   Gusts: NA
Location:  37.12°N, 78.65°W
Report Text: KFVX 210215Z AUTO 00000KT 10SM OVC080 03/M03 A3027 RMK AO2 T00261031
Loading
Personal Weather Stations






























Interactive Weather Map New forecast layout! Learn more

10-Day Weather Forecast

Advertisements
Track Severe Weather on mobile